Time;durP1;ratioP1;P1;durP2;ratioP2;P2;SDS_P1;SDS_P2;PMS_P1;PMS_P2;Temp;Humidity;BMP_temperature;BMP_pressure;BME280_temperature;BME280_humidity;BME280_pressure;Samples;Min_cycle;Max_cycle;Signal;HPM_P1;HPM_P2
2022/06/06 00:00:12;;;;;;;5.00;2.17;;;;;;;19.48;57.96;100962.53;5082617;28;20048;-74
2022/06/06 00:02:40;;;;;;;4.20;2.22;;;;;;;19.37;58.07;100957.16;5076959;28;20048;-73
2022/06/06 00:05:13;;;;;;;6.55;1.90;;;;;;;19.46;58.09;100960.03;5082419;28;20076;-73
2022/06/06 00:07:40;;;;;;;4.50;2.00;;;;;;;19.46;58.09;100964.88;5088297;28;20052;-73
2022/06/06 00:10:08;;;;;;;3.75;2.03;;;;;;;19.13;58.15;100906.66;5087207;28;20169;-72
2022/06/06 00:12:35;;;;;;;3.58;1.67;;;;;;;19.32;58.52;100943.19;5089423;28;20079;-73
2022/06/06 00:15:03;;;;;;;2.70;1.67;;;;;;;19.10;58.22;100907.31;5084338;28;20128;-73
2022/06/06 00:17:30;;;;;;;6.32;2.03;;;;;;;19.38;58.41;100958.88;5083281;28;20149;-73
2022/06/06 00:19:58;;;;;;;2.70;1.38;;;;;;;19.31;58.17;100927.34;5073425;28;20127;-73
2022/06/06 00:22:25;;;;;;;2.20;1.58;;;;;;;19.28;58.00;100930.00;5083813;28;20135;-74
2022/06/06 00:24:52;;;;;;;2.78;1.60;;;;;;;19.39;58.28;100942.69;5086153;28;20082;-73
2022/06/06 00:27:19;;;;;;;5.35;1.98;;;;;;;19.20;57.93;100905.34;5077267;28;20040;-73
2022/06/06 00:29:47;;;;;;;3.50;1.77;;;;;;;19.28;58.40;100925.19;5080038;28;20140;-74
2022/06/06 00:35:03;;;;;;;3.00;1.73;;;;;;;19.27;58.10;100929.16;5092024;28;20093;-71
2022/06/06 00:37:32;;;;;;;4.07;1.67;;;;;;;19.32;58.41;100925.38;5085616;28;20056;-72
2022/06/06 00:40:01;;;;;;;4.70;1.50;;;;;;;19.32;58.23;100922.53;5084846;28;20443;-75
2022/06/06 00:42:34;;;;;;;4.93;1.33;;;;;;;19.23;58.16;100904.69;5088371;28;20084;-74
2022/06/06 00:45:22;;;;;;;3.03;1.25;;;;;;;19.23;58.19;100904.69;5085068;28;20040;-73
2022/06/06 00:48:10;;;;;;;3.35;1.60;;;;;;;19.28;58.13;100907.34;5092160;28;20402;-74
2022/06/06 00:51:05;;;;;;;3.17;1.70;;;;;;;19.12;58.72;100899.34;5086945;28;20052;-74
2022/06/06 00:53:36;;;;;;;7.20;3.00;;;;;;;19.15;58.61;100910.00;5081391;28;20105;-74
2022/06/06 00:56:23;;;;;;;9.80;2.97;;;;;;;19.12;58.58;100904.16;5081415;28;20131;-72
2022/06/06 00:58:55;;;;;;;6.72;2.47;;;;;;;18.90;58.89;100868.31;5090281;28;20147;-72
2022/06/06 01:01:23;;;;;;;7.07;2.47;;;;;;;18.96;59.09;100877.50;5079253;28;20105;-73
2022/06/06 01:03:51;;;;;;;6.10;2.13;;;;;;;18.83;59.49;100885.75;5077566;28;20072;-73
2022/06/06 01:06:19;;;;;;;5.60;1.75;;;;;;;18.66;59.59;100849.72;5077881;28;20067;-74
2022/06/06 01:08:47;;;;;;;8.30;3.10;;;;;;;18.84;59.87;100878.13;5086375;28;20533;-73
2022/06/06 01:11:14;;;;;;;4.93;2.58;;;;;;;18.33;60.05;100803.22;5089910;28;20155;-76
2022/06/06 01:13:45;;;;;;;5.10;2.92;;;;;;;18.76;60.15;100865.59;5075947;28;20131;-75
2022/06/06 01:16:12;;;;;;;4.75;2.20;;;;;;;18.79;59.97;100870.63;5081303;28;20052;-75
2022/06/06 01:18:48;;;;;;;4.82;2.10;;;;;;;18.76;59.79;100874.09;5077950;28;20056;-75
2022/06/06 01:21:27;;;;;;;6.45;2.17;;;;;;;18.65;60.23;100856.56;5093043;28;20102;-74
2022/06/06 01:24:13;;;;;;;5.68;1.80;;;;;;;18.63;60.24;100872.19;5094541;28;20126;-78
2022/06/06 01:26:55;;;;;;;3.72;2.10;;;;;;;18.43;60.28;100842.53;5086308;28;20498;-74
2022/06/06 01:29:28;;;;;;;4.68;2.10;;;;;;;18.68;60.18;100866.41;5082606;28;20135;-73
2022/06/06 01:32:03;;;;;;;6.10;2.00;;;;;;;18.63;60.30;100858.91;5077059;28;20079;-74
2022/06/06 01:34:34;;;;;;;3.25;2.20;;;;;;;18.53;60.33;100841.38;5090106;28;20059;-74
2022/06/06 01:37:01;;;;;;;3.67;2.03;;;;;;;18.46;60.67;100847.50;5088471;28;20139;-75
2022/06/06 01:39:31;;;;;;;5.80;3.20;;;;;;;18.60;60.02;100862.38;5090361;28;20131;-74
2022/06/06 01:42:07;;;;;;;;;;;;;;;18.65;59.91;100867.88;5087949;28;20083;-73
2022/06/06 01:44:36;;;;;;;3.58;2.40;;;;;;;18.78;59.62;100882.28;5087175;28;19927;-75
2022/06/06 01:47:09;;;;;;;5.63;2.35;;;;;;;18.73;59.66;100857.78;5080772;28;20143;-73
2022/06/06 01:49:38;;;;;;;2.83;2.00;;;;;;;18.72;59.68;100850.47;5089933;28;20139;-75
2022/06/06 01:52:08;;;;;;;5.90;2.17;;;;;;;18.74;59.42;100855.81;5089318;28;20086;-75
2022/06/06 01:54:35;;;;;;;6.50;2.33;;;;;;;18.67;59.70;100845.75;5088727;28;20131;-72
2022/06/06 01:57:05;;;;;;;8.88;2.00;;;;;;;18.82;59.87;100855.81;5084399;28;20142;-73
2022/06/06 01:59:33;;;;;;;4.32;2.08;;;;;;;18.84;59.78;100858.34;5092857;28;20075;-74
2022/06/06 02:02:00;;;;;;;7.22;2.25;;;;;;;18.80;59.73;100840.31;5088054;28;20039;-74
2022/06/06 02:04:27;;;;;;;2.70;1.92;;;;;;;18.77;59.52;100840.97;5091905;28;20503;-74
2022/06/06 02:06:54;;;;;;;4.55;1.95;;;;;;;18.87;59.72;100847.19;5091182;28;20076;-74
2022/06/06 02:09:21;;;;;;;3.17;1.60;;;;;;;18.92;59.77;100849.00;5094820;28;20052;-73
2022/06/06 02:11:48;;;;;;;3.53;1.92;;;;;;;18.78;59.87;100823.69;5088055;28;20112;-73
2022/06/06 02:14:15;;;;;;;2.80;1.88;;;;;;;18.91;59.29;100844.53;5075804;28;20080;-71
2022/06/06 02:16:42;;;;;;;4.78;2.67;;;;;;;18.96;59.55;100852.00;5084335;28;20574;-72
2022/06/06 02:19:11;;;;;;;4.38;2.22;;;;;;;18.83;59.61;100831.19;5083542;28;20048;-71
2022/06/06 02:21:38;;;;;;;5.23;2.17;;;;;;;18.82;59.50;100846.50;5086428;28;20044;-71
2022/06/06 02:24:05;;;;;;;4.13;2.58;;;;;;;18.80;59.56;100843.16;5087264;28;20087;-71
2022/06/06 02:26:32;;;;;;;2.85;1.88;;;;;;;18.65;59.45;100838.75;5088055;28;20075;-70
2022/06/06 02:29:00;;;;;;;5.22;2.17;;;;;;;18.75;59.56;100863.94;5091382;28;20135;-71
2022/06/06 02:31:28;;;;;;;3.13;1.83;;;;;;;18.51;59.89;100824.75;5087334;28;20124;-71
2022/06/06 02:33:55;;;;;;;4.28;1.88;;;;;;;18.54;60.21;100823.25;5089134;28;20052;-71
2022/06/06 02:36:22;;;;;;;3.08;1.80;;;;;;;18.67;59.89;100842.09;5089498;28;20447;-71
2022/06/06 02:38:49;;;;;;;4.72;1.73;;;;;;;18.64;59.79;100832.28;5090002;28;20131;-71
2022/06/06 02:41:17;;;;;;;5.10;2.15;;;;;;;18.67;59.61;100828.78;5088403;28;20051;-72
2022/06/06 02:43:45;;;;;;;3.97;2.00;;;;;;;18.67;59.66;100825.97;5088689;28;20131;-74
2022/06/06 02:46:13;;;;;;;4.57;2.17;;;;;;;18.54;59.97;100809.13;5089878;28;20048;-74
2022/06/06 02:48:40;;;;;;;4.13;1.70;;;;;;;18.68;59.72;100843.75;5091006;28;20135;-74
2022/06/06 02:51:08;;;;;;;4.45;1.90;;;;;;;18.63;59.73;100833.44;5090570;28;20079;-73
2022/06/06 02:53:35;;;;;;;3.35;1.85;;;;;;;18.61;59.94;100840.59;5085328;28;20506;-72
2022/06/06 02:56:03;;;;;;;5.00;2.00;;;;;;;18.55;59.81;100844.72;5084876;28;20131;-73
2022/06/06 02:58:30;;;;;;;4.38;1.35;;;;;;;18.38;60.19;100834.16;5084585;28;20097;-72
2022/06/06 03:01:07;;;;;;;3.97;1.77;;;;;;;18.22;60.45;100823.31;5085488;28;20554;-73
2022/06/06 03:03:36;;;;;;;2.72;1.60;;;;;;;18.30;60.60;100832.16;5081893;28;20406;-71
2022/06/06 03:06:05;;;;;;;7.00;2.28;;;;;;;18.30;60.75;100849.13;5088722;28;20131;-72
2022/06/06 03:08:59;;;;;;;2.70;1.80;;;;;;;18.26;60.79;100845.28;5087693;28;20494;-74
2022/06/06 03:11:29;;;;;;;3.88;1.95;;;;;;;18.29;60.50;100838.94;5076514;28;20080;-70
2022/06/06 03:14:19;;;;;;;3.65;2.15;;;;;;;18.34;60.86;100836.00;5084655;28;20549;-71
2022/06/06 03:20:49;;;;;;;7.13;4.20;;;;;;;18.37;60.56;100833.34;5089507;28;20084;-71
2022/06/06 03:23:46;;;;;;;4.70;4.10;;;;;;;18.37;60.29;100838.16;5100990;28;20089;-72
2022/06/06 03:26:46;;;;;;;6.00;2.08;;;;;;;18.34;60.45;100834.00;5087040;28;20087;-72
2022/06/06 03:29:28;;;;;;;4.20;2.00;;;;;;;18.34;60.54;100839.66;5083913;28;20473;-72
2022/06/06 03:32:01;;;;;;;3.13;1.98;;;;;;;18.39;60.59;100842.34;5088852;28;20071;-72
2022/06/06 03:34:58;;;;;;;3.75;2.08;;;;;;;18.40;60.43;100843.16;5090085;28;20073;-73
2022/06/06 03:37:42;;;;;;;3.95;2.25;;;;;;;18.34;60.74;100839.66;5085997;28;20098;-73
2022/06/06 03:40:30;;;;;;;3.70;1.77;;;;;;;18.43;60.65;100836.88;5091822;28;20135;-71
2022/06/06 03:43:35;;;;;;;5.43;1.98;;;;;;;18.45;60.30;100840.19;5091514;28;20102;-71
2022/06/06 03:46:22;;;;;;;4.95;2.00;;;;;;;18.33;60.73;100823.84;5027323;28;20554;-69
2022/06/06 03:48:56;;;;;;;2.78;1.90;;;;;;;18.28;60.64;100818.31;5081967;28;20127;-70
2022/06/06 03:51:31;;;;;;;2.10;1.55;;;;;;;18.21;60.91;100815.97;5091243;28;20135;-71
2022/06/06 03:54:05;;;;;;;4.05;1.80;;;;;;;18.10;61.53;100806.13;5083335;28;20128;-71
2022/06/06 03:56:49;;;;;;;3.53;1.85;;;;;;;18.18;61.10;100802.47;5090790;28;20107;-70
2022/06/06 03:59:19;;;;;;;2.85;1.38;;;;;;;18.12;61.24;100806.63;5089617;28;20087;-71
2022/06/06 04:01:47;;;;;;;3.55;2.22;;;;;;;17.69;61.89;100742.22;5083304;28;20072;-71
2022/06/06 04:04:16;;;;;;;6.13;1.80;;;;;;;17.81;61.87;100781.22;5086984;28;20131;-72
2022/06/06 04:06:46;;;;;;;6.22;1.77;;;;;;;17.83;62.02;100795.00;5089716;28;20048;-71
2022/06/06 04:09:13;;;;;;;4.50;1.90;;;;;;;17.64;62.53;100770.63;5075588;28;20052;-72
2022/06/06 04:11:57;;;;;;;3.53;1.88;;;;;;;17.78;62.52;100801.63;5088336;28;20506;-72
2022/06/06 04:14:24;;;;;;;2.65;1.90;;;;;;;17.69;62.71;100803.53;5089459;28;20131;-72
2022/06/06 04:16:59;;;;;;;4.38;3.38;;;;;;;17.20;62.92;100732.78;5080720;28;20139;-72
2022/06/06 04:19:41;;;;;;;4.82;3.63;;;;;;;17.43;63.21;100789.22;5088370;28;20510;-73
2022/06/06 04:22:31;;;;;;;4.50;4.10;;;;;;;17.55;63.27;100805.59;5090685;28;20079;-72
2022/06/06 04:25:13;;;;;;;;;;;;;;;17.50;63.68;100806.53;5076703;28;20134;-71
2022/06/06 04:28:02;;;;;;;6.03;3.90;;;;;;;17.61;62.76;100793.03;5089736;28;20390;-71
2022/06/06 04:30:47;;;;;;;4.30;3.90;;;;;;;17.81;62.67;100812.28;5088180;28;20131;-72
2022/06/06 04:33:27;;;;;;;6.43;4.20;;;;;;;17.72;62.34;100794.41;5085282;28;20135;-70
2022/06/06 04:36:15;;;;;;;9.30;4.10;;;;;;;17.70;62.46;100791.91;5072196;28;20123;-72
2022/06/06 04:38:47;;;;;;;4.68;4.28;;;;;;;17.86;62.64;100812.13;5083709;28;20138;-71
2022/06/06 04:41:16;;;;;;;5.63;3.75;;;;;;;17.86;62.61;100805.66;5078021;28;20087;-72
2022/06/06 04:43:59;;;;;;;4.43;3.95;;;;;;;17.74;62.60;100787.28;5083549;28;20131;-72
2022/06/06 04:46:32;;;;;;;5.70;3.92;;;;;;;17.64;62.73;100781.06;5079354;28;20563;-71
2022/06/06 04:49:00;;;;;;;5.05;3.55;;;;;;;17.79;62.45;100806.13;5082100;28;20083;-72
2022/06/06 04:51:31;;;;;;;4.95;3.70;;;;;;;18.01;62.39;100813.72;5086827;28;20051;-72
2022/06/06 04:53:59;;;;;;;9.18;8.35;;;;;;;18.14;61.95;100826.91;5086634;28;20055;-72
2022/06/06 04:56:26;;;;;;;9.50;8.80;;;;;;;18.22;61.50;100831.78;5090938;28;20048;-72
2022/06/06 04:58:57;;;;;;;15.70;8.73;;;;;;;18.22;61.77;100814.84;5092711;28;20056;-72
2022/06/06 05:01:26;;;;;;;8.60;7.90;;;;;;;18.24;61.79;100806.00;5091705;28;20056;-72
2022/06/06 05:03:53;;;;;;;10.30;8.25;;;;;;;18.17;61.78;100800.00;5090243;28;20109;-72
2022/06/06 05:06:32;;;;;;;9.68;8.88;;;;;;;18.14;62.05;100811.94;5091078;28;20132;-73
2022/06/06 05:08:59;;;;;;;9.60;8.90;;;;;;;18.03;62.51;100804.91;5092814;28;20048;-72
2022/06/06 05:11:31;;;;;;;10.52;9.52;;;;;;;18.03;62.50;100817.06;5085418;28;20087;-71
2022/06/06 05:13:58;;;;;;;9.80;8.98;;;;;;;17.98;62.84;100811.53;5091315;28;20082;-72
2022/06/06 05:16:49;;;;;;;9.55;8.75;;;;;;;17.96;62.56;100811.03;5082214;28;20109;-74
2022/06/06 05:19:22;;;;;;;9.57;8.68;;;;;;;17.88;62.74;100825.94;5091365;28;20048;-74
2022/06/06 05:22:06;;;;;;;6.85;6.25;;;;;;;17.99;62.24;100814.03;5090617;28;20498;-73
2022/06/06 05:24:51;;;;;;;9.65;7.75;;;;;;;18.23;62.32;100843.94;5091585;28;20052;-73
2022/06/06 05:27:54;;;;;;;7.63;6.95;;;;;;;18.07;62.02;100806.75;5089487;28;20077;-73
2022/06/06 05:30:49;;;;;;;7.70;7.00;;;;;;;17.86;63.02;100783.88;5083224;28;20056;-73
2022/06/06 05:33:19;;;;;;;7.95;7.35;;;;;;;17.71;63.64;100798.41;5099750;28;20048;-72
2022/06/06 05:36:01;;;;;;;10.30;9.40;;;;;;;17.75;63.05;100816.38;5094216;28;20048;-72
2022/06/06 05:38:51;;;;;;;10.77;8.57;;;;;;;17.86;62.60;100816.97;5082424;28;20055;-73
2022/06/06 05:41:40;;;;;;;10.82;9.73;;;;;;;17.86;63.17;100816.97;5057007;28;20495;-73
2022/06/06 05:44:06;;;;;;;9.90;7.85;;;;;;;17.85;62.91;100820.94;5088507;28;20060;-74
2022/06/06 05:46:45;;;;;;;10.43;9.35;;;;;;;17.87;62.86;100810.13;5087562;28;20316;-72
2022/06/06 05:49:35;;;;;;;9.27;8.45;;;;;;;17.97;63.46;100804.22;5082504;28;20136;-71
2022/06/06 05:52:14;;;;;;;12.60;11.32;;;;;;;18.06;64.22;100827.72;5088181;28;20043;-76
2022/06/06 05:55:00;;;;;;;16.33;14.90;;;;;;;18.43;64.49;100819.91;5074251;28;20048;-69
2022/06/06 05:58:17;;;;;;;11.60;10.40;;;;;;;19.03;63.16;100856.03;5105957;28;20064;-80
2022/06/06 06:01:00;;;;;;;10.38;9.45;;;;;;;18.97;62.53;100862.16;5026268;28;20127;-74
2022/06/06 06:03:48;;;;;;;12.25;10.05;;;;;;;18.92;62.53;100861.16;5082595;28;20108;-74
2022/06/06 06:06:29;;;;;;;12.18;11.40;;;;;;;18.93;61.71;100870.47;5082503;28;20118;-74
2022/06/06 06:08:58;;;;;;;9.80;8.98;;;;;;;18.97;61.61;100868.66;5086187;28;20125;-74
2022/06/06 06:12:02;;;;;;;11.98;8.77;;;;;;;18.87;61.56;100881.13;5090467;28;20082;-73
2022/06/06 06:14:40;;;;;;;11.75;10.93;;;;;;;18.73;61.41;100860.59;5085531;28;20043;-74
2022/06/06 06:17:07;;;;;;;11.25;10.30;;;;;;;18.73;61.23;100888.06;5092061;28;20103;-73
2022/06/06 06:19:43;;;;;;;9.65;9.05;;;;;;;18.76;61.30;100895.91;5091011;28;20055;-73
2022/06/06 06:22:11;;;;;;;10.02;9.25;;;;;;;18.67;60.92;100882.53;5094232;28;20196;-73
2022/06/06 06:24:40;;;;;;;10.70;9.80;;;;;;;18.68;61.18;100872.88;5083114;28;20051;-73
2022/06/06 06:27:08;;;;;;;10.80;9.93;;;;;;;19.06;61.45;100906.31;5087898;28;20049;-73
2022/06/06 06:29:35;;;;;;;10.13;9.32;;;;;;;19.14;61.20;100894.19;5082233;28;20082;-73
2022/06/06 06:32:39;;;;;;;10.50;9.60;;;;;;;18.95;60.90;100887.97;5082441;28;20055;-73
2022/06/06 06:35:51;;;;;;;9.75;9.13;;;;;;;18.89;60.97;100894.94;5076766;28;20102;-72
2022/06/06 06:38:50;;;;;;;12.45;9.18;;;;;;;18.59;61.42;100874.84;5085925;28;20059;-71
2022/06/06 06:41:17;;;;;;;11.38;10.18;;;;;;;18.61;61.24;100900.81;5077883;28;20052;-73
2022/06/06 06:44:05;;;;;;;16.33;15.00;;;;;;;18.45;61.48;100897.56;5088281;28;20052;-73
2022/06/06 06:46:41;;;;;;;11.38;10.38;;;;;;;18.43;61.68;100896.25;5084866;28;20049;-81
2022/06/06 06:49:22;;;;;;;13.73;12.20;;;;;;;18.46;61.59;100896.44;5080152;28;20048;-75
2022/06/06 06:51:57;;;;;;;;;;;;;;;18.65;62.75;100896.16;5078293;28;20041;-72
2022/06/06 06:54:36;;;;;;;13.10;11.95;;;;;;;19.19;62.50;100913.00;5080509;28;19928;-74
2022/06/06 06:57:16;;;;;;;13.67;11.97;;;;;;;19.16;61.39;100905.16;5082950;28;20069;-76
2022/06/06 07:00:05;;;;;;;17.65;12.07;;;;;;;19.25;61.59;100899.50;5074790;28;20076;-76
2022/06/06 07:09:03;;;;;;;12.85;11.55;;;;;;;18.99;60.77;100893.81;5076946;28;20056;-75
2022/06/06 07:11:44;;;;;;;13.05;11.70;;;;;;;19.00;60.51;100899.13;5075676;28;20483;-74
2022/06/06 07:14:29;;;;;;;11.90;10.90;;;;;;;19.50;60.80;100907.22;5093019;28;20044;-76
2022/06/06 07:16:58;;;;;;;11.80;10.63;;;;;;;19.46;60.21;100892.06;5089548;28;20448;-75
2022/06/06 07:19:31;;;;;;;11.48;10.48;;;;;;;19.38;59.95;100895.69;5076754;28;20133;-75
2022/06/06 07:22:02;;;;;;;11.02;10.15;;;;;;;19.23;60.08;100865.88;5091502;28;20870;-75
2022/06/06 07:24:30;;;;;;;13.75;12.45;;;;;;;19.58;59.34;100899.88;5092607;28;20051;-75
2022/06/06 07:26:59;;;;;;;10.38;9.52;;;;;;;19.47;59.46;100888.06;5075082;28;20097;-76
2022/06/06 07:29:26;;;;;;;13.70;12.57;;;;;;;19.52;59.34;100904.91;5072756;28;20056;-67
2022/06/06 07:32:02;;;;;;;10.65;9.48;;;;;;;19.54;59.08;100905.38;5079048;28;20449;-66
2022/06/06 07:34:50;;;;;;;13.70;9.68;;;;;;;19.59;59.18;100912.91;5080230;28;20097;-65
2022/06/06 07:37:32;;;;;;;9.80;8.60;;;;;;;19.60;59.05;100903.22;5073259;28;20102;-65
2022/06/06 07:40:30;;;;;;;9.82;9.05;;;;;;;19.73;58.84;100912.75;5078047;28;20106;-65
2022/06/06 07:43:19;;;;;;;9.57;8.98;;;;;;;19.98;59.07;100916.75;5077350;28;20161;-65
2022/06/06 07:45:54;;;;;;;9.45;8.75;;;;;;;20.10;58.60;100917.72;5074634;28;20056;-65
2022/06/06 07:48:48;;;;;;;10.05;9.15;;;;;;;20.08;58.61;100922.88;5075850;28;20048;-65
2022/06/06 07:51:45;;;;;;;10.88;9.88;;;;;;;19.94;58.37;100918.59;5073966;28;20080;-65
2022/06/06 07:54:36;;;;;;;12.98;11.80;;;;;;;19.86;58.32;100895.59;5076700;28;20047;-65
2022/06/06 07:57:17;;;;;;;13.18;12.23;;;;;;;19.99;58.05;100907.88;5082608;28;20043;-65
2022/06/06 08:00:01;;;;;;;10.35;9.45;;;;;;;19.85;58.29;100916.56;5081640;28;20052;-65
2022/06/06 08:03:07;;;;;;;12.05;10.40;;;;;;;19.66;58.36;100921.75;5085388;28;20452;-65
2022/06/06 08:05:58;;;;;;;11.70;10.70;;;;;;;19.63;58.46;100914.75;5091840;28;20085;-65
2022/06/06 08:08:42;;;;;;;11.43;10.32;;;;;;;19.64;58.77;100909.91;5092884;28;20462;-65
2022/06/06 08:11:17;;;;;;;11.13;10.00;;;;;;;19.86;58.69;100917.41;5092237;28;20125;-64
2022/06/06 08:13:59;;;;;;;10.90;9.77;;;;;;;19.92;58.40;100918.91;5093723;28;20229;-65
2022/06/06 08:16:54;;;;;;;10.70;9.73;;;;;;;19.74;58.45;100914.41;5095616;28;20073;-68
2022/06/06 08:19:45;;;;;;;11.10;10.30;;;;;;;19.62;58.46;100896.06;5086648;28;20079;-68
2022/06/06 08:22:12;;;;;;;10.50;9.80;;;;;;;19.00;58.34;100791.59;5091163;28;20097;-68
2022/06/06 08:24:42;;;;;;;10.93;10.10;;;;;;;19.80;58.50;100885.59;5089254;28;20052;-70
2022/06/06 08:27:19;;;;;;;11.85;11.05;;;;;;;20.15;58.39;100913.03;5093391;28;20421;-70
2022/06/06 08:29:48;;;;;;;9.50;8.88;;;;;;;20.24;58.14;100899.66;5091964;28;20568;-68
2022/06/06 08:32:15;;;;;;;9.77;9.05;;;;;;;20.47;57.72;100903.09;5086738;28;20060;-67
2022/06/06 08:34:42;;;;;;;10.43;9.52;;;;;;;20.66;57.92;100894.22;5092923;28;20074;-63
2022/06/06 08:37:18;;;;;;;9.68;8.90;;;;;;;21.12;57.54;100895.31;5112784;28;20079;-67
2022/06/06 08:39:57;;;;;;;7.22;6.72;;;;;;;21.47;56.33;100910.97;5084154;28;20506;-67
2022/06/06 08:42:55;;;;;;;7.05;6.60;;;;;;;21.83;55.92;100898.13;5100980;28;20463;-66
2022/06/06 08:45:34;;;;;;;8.68;8.15;;;;;;;22.06;55.15;100909.13;5091588;28;20502;-68
2022/06/06 08:48:26;;;;;;;9.43;8.50;;;;;;;22.31;54.59;100907.22;5091665;28;20127;-65
2022/06/06 08:50:59;;;;;;;8.70;8.00;;;;;;;22.70;54.07;100908.56;5086557;28;20057;-68
2022/06/06 08:54:07;;;;;;;8.82;8.23;;;;;;;22.63;54.54;100919.72;5086046;28;20437;-66
2022/06/06 08:56:44;;;;;;;9.90;9.30;;;;;;;22.57;53.81;100916.28;5075497;28;20136;-67
2022/06/06 08:59:42;;;;;;;12.40;11.18;;;;;;;22.58;54.11;100917.94;5083213;28;20095;-64
2022/06/06 09:02:18;;;;;;;9.63;8.95;;;;;;;22.74;53.72;100926.63;5085886;28;20084;-65
2022/06/06 09:05:15;;;;;;;8.07;7.30;;;;;;;22.75;52.51;100916.91;5093341;28;20066;-65
2022/06/06 09:08:04;;;;;;;9.57;8.80;;;;;;;22.74;52.82;100932.34;5093927;28;20135;-65
2022/06/06 09:10:43;;;;;;;9.23;8.55;;;;;;;22.87;52.57;100939.72;5094701;28;20143;-64
2022/06/06 09:13:18;;;;;;;9.52;8.73;;;;;;;22.88;52.51;100924.28;5082396;28;20130;-67
2022/06/06 09:16:00;;;;;;;8.95;8.43;;;;;;;22.80;52.78;100932.91;5087525;28;20123;-68
2022/06/06 09:18:52;;;;;;;8.60;7.90;;;;;;;23.10;53.00;100922.16;5085806;28;20036;-67
2022/06/06 09:21:57;;;;;;;9.00;8.40;;;;;;;23.47;52.11;100930.69;5089945;28;20131;-66
2022/06/06 09:24:39;;;;;;;8.63;8.13;;;;;;;23.15;52.27;100865.78;5078748;28;20134;-65
2022/06/06 09:27:27;;;;;;;10.18;9.10;;;;;;;23.63;52.33;100925.91;5085662;28;20084;-66
2022/06/06 09:30:19;;;;;;;7.80;7.20;;;;;;;23.69;51.97;100927.31;5084847;28;20088;-65
2022/06/06 09:32:52;;;;;;;8.35;7.65;;;;;;;23.73;51.73;100936.00;5095495;28;20093;-66
2022/06/06 09:35:45;;;;;;;9.35;7.90;;;;;;;23.82;51.61;100926.09;5094816;28;20477;-66
2022/06/06 09:38:34;;;;;;;9.45;8.73;;;;;;;23.82;51.06;100923.22;5093284;27;20502;-64
2022/06/06 09:41:28;;;;;;;12.30;11.27;;;;;;;24.11;51.00;100932.66;5093447;28;20145;-65
2022/06/06 09:44:02;;;;;;;8.52;7.82;;;;;;;24.24;50.67;100919.97;5090059;28;20152;-66
2022/06/06 09:46:52;;;;;;;8.95;8.25;;;;;;;24.99;50.51;100927.72;5095425;28;20163;-65
2022/06/06 09:49:47;;;;;;;10.20;8.85;;;;;;;25.62;48.95;100921.06;5090215;28;20499;-65
2022/06/06 09:52:42;;;;;;;9.82;8.90;;;;;;;26.21;48.13;100925.59;5085540;28;20059;-65
2022/06/06 09:59:44;;;;;;;10.77;8.70;;;;;;;25.95;48.13;100934.09;5025218;28;20152;-65
2022/06/06 10:02:55;;;;;;;13.27;12.25;;;;;;;25.82;48.17;100919.09;5096467;28;20481;-65
2022/06/06 10:06:09;;;;;;;11.00;10.15;;;;;;;25.87;47.53;100920.81;5092999;28;20048;-65
2022/06/06 10:08:54;;;;;;;9.80;9.20;;;;;;;25.47;47.46;100927.66;5088195;28;20086;-66
2022/06/06 10:11:33;;;;;;;10.82;9.95;;;;;;;25.18;47.42;100934.72;5096391;28;20080;-65
2022/06/06 10:14:13;;;;;;;11.00;10.05;;;;;;;24.83;47.53;100932.59;5088965;28;20144;-64
2022/06/06 10:16:58;;;;;;;12.48;11.77;;;;;;;24.87;48.47;100941.25;5080741;28;20496;-64
2022/06/06 10:19:25;;;;;;;9.55;8.85;;;;;;;24.87;48.11;100942.09;5085415;28;20056;-65
2022/06/06 10:22:00;;;;;;;9.98;9.18;;;;;;;24.79;48.33;100940.25;5097479;28;20234;-65
2022/06/06 10:24:33;;;;;;;9.68;9.05;;;;;;;24.77;48.24;100934.06;5092369;28;20134;-65
2022/06/06 10:27:30;;;;;;;10.38;9.43;;;;;;;24.85;48.30;100929.38;5085551;27;20048;-65
2022/06/06 10:30:13;;;;;;;9.98;9.18;;;;;;;24.89;47.63;100931.13;5085751;28;20122;-65
2022/06/06 10:32:58;;;;;;;9.30;8.80;;;;;;;24.86;48.25;100928.19;5080830;28;20063;-65
2022/06/06 10:35:47;;;;;;;9.73;8.98;;;;;;;24.85;47.97;100920.78;5088408;28;20477;-65
2022/06/06 10:38:45;;;;;;;8.98;8.48;;;;;;;25.17;47.94;100928.19;5081717;28;20084;-65
2022/06/06 10:41:34;;;;;;;10.10;9.40;;;;;;;24.95;47.38;100865.97;5087446;28;20143;-65
2022/06/06 10:44:23;;;;;;;9.52;8.95;;;;;;;25.97;47.24;100923.06;5078100;28;20589;-65
2022/06/06 10:47:22;;;;;;;9.57;8.77;;;;;;;26.58;46.26;100913.66;5078618;28;20131;-65
2022/06/06 10:49:59;;;;;;;8.82;8.20;;;;;;;26.98;45.26;100918.06;5079479;28;20127;-65
2022/06/06 10:52:53;;;;;;;11.90;10.90;;;;;;;26.95;44.61;100936.03;5084769;28;20144;-65
2022/06/06 10:55:32;;;;;;;12.43;11.75;;;;;;;26.85;44.66;100926.03;5098323;28;20126;-65
2022/06/06 10:58:18;;;;;;;10.30;9.40;;;;;;;26.91;44.29;100938.00;5077288;28;20490;-65
2022/06/06 11:01:03;;;;;;;8.05;1.55;;;;;;;26.59;44.41;100938.22;5082201;28;20369;-65
2022/06/06 11:03:45;;;;;;;8.10;1.15;;;;;;;26.26;44.97;100938.81;5082533;28;20052;-66
2022/06/06 11:06:35;;;;;;;2.50;1.10;;;;;;;26.12;45.24;100939.34;5085343;28;20525;-65
2022/06/06 11:09:17;;;;;;;6.15;1.17;;;;;;;26.11;44.66;100937.66;5061677;28;20135;-65
2022/06/06 11:12:21;;;;;;;2.20;1.17;;;;;;;25.89;45.01;100939.25;5083781;28;20517;-66
2022/06/06 11:14:54;;;;;;;2.63;1.17;;;;;;;25.75;45.08;100925.44;5079210;28;20135;-65
2022/06/06 11:17:48;;;;;;;6.30;1.80;;;;;;;25.65;44.95;100934.63;5092368;28;20471;-65
2022/06/06 11:20:24;;;;;;;3.20;1.77;;;;;;;25.73;45.37;100942.16;5090337;28;20827;-66
2022/06/06 11:23:03;;;;;;;3.97;1.48;;;;;;;25.82;44.97;100944.00;5099859;28;20461;-66
2022/06/06 11:25:56;;;;;;;1.15;1.05;;;;;;;25.69;45.03;100949.81;5087390;28;20083;-66
2022/06/06 11:28:33;;;;;;;3.83;1.33;;;;;;;25.72;44.91;100956.84;5083641;28;20132;-66
2022/06/06 11:31:25;;;;;;;3.22;1.35;;;;;;;25.49;45.24;100962.44;5088260;28;20056;-66
2022/06/06 11:34:44;;;;;;;1.40;1.05;;;;;;;25.35;45.95;100960.06;5092497;28;20078;-66
2022/06/06 11:37:30;;;;;;;3.25;1.35;;;;;;;25.32;45.35;100957.09;5088639;28;20583;-67
2022/06/06 11:40:26;;;;;;;1.52;0.98;;;;;;;25.11;45.43;100963.09;5080156;28;20140;-66
2022/06/06 11:43:12;;;;;;;2.40;1.08;;;;;;;24.97;46.29;100963.56;5056155;28;20048;-66
2022/06/06 11:46:23;;;;;;;1.85;1.10;;;;;;;24.82;46.32;100946.06;5078811;28;20714;-65
2022/06/06 11:49:13;;;;;;;3.78;1.10;;;;;;;25.16;46.09;100972.25;5088421;28;20098;-66
2022/06/06 11:52:05;;;;;;;1.40;1.25;;;;;;;25.12;46.08;100957.03;5057701;28;20579;-67
2022/06/06 11:54:56;;;;;;;2.45;1.35;;;;;;;25.46;45.65;100949.69;5083667;28;20051;-66
2022/06/06 11:57:54;;;;;;;3.72;1.20;;;;;;;25.69;45.06;100941.25;5089607;28;20136;-67
2022/06/06 12:00:23;;;;;;;2.15;0.98;;;;;;;26.13;44.71;100945.91;5093155;28;20099;-65
2022/06/06 12:03:28;;;;;;;4.85;1.20;;;;;;;26.73;44.99;100939.72;5090753;28;20131;-66
2022/06/06 12:06:19;;;;;;;1.45;1.10;;;;;;;27.73;43.62;100929.88;5089462;28;20130;-66
2022/06/06 12:08:58;;;;;;;2.22;1.27;;;;;;;28.11;42.88;100941.06;5099695;28;20502;-66
2022/06/06 12:11:55;;;;;;;1.88;1.10;;;;;;;28.04;42.56;100925.81;5097980;28;20086;-66
2022/06/06 12:15:19;;;;;;;5.97;1.08;;;;;;;28.22;42.57;100934.63;5092697;28;20083;-68
2022/06/06 12:18:10;;;;;;;1.08;0.90;;;;;;;28.53;41.80;100933.38;5004611;28;20140;-66
2022/06/06 12:20:59;;;;;;;2.03;1.20;;;;;;;29.00;41.17;100947.00;5026115;28;20088;-66
2022/06/06 12:23:50;;;;;;;1.40;0.90;;;;;;;28.53;41.49;100939.94;5096394;28;20087;-66
2022/06/06 12:26:48;;;;;;;2.53;1.10;;;;;;;27.95;42.27;100946.19;5101573;28;20136;-66
2022/06/06 12:29:18;;;;;;;2.47;1.38;;;;;;;27.53;42.74;100950.09;5101152;28;20075;-65
2022/06/06 12:31:44;;;;;;;2.50;1.10;;;;;;;27.29;43.14;100947.66;5099353;28;20044;-66
2022/06/06 12:34:24;;;;;;;1.13;0.98;;;;;;;27.44;42.81;100942.97;5097472;28;20047;-66
2022/06/06 12:36:57;;;;;;;1.17;1.02;;;;;;;27.97;42.11;100943.78;5087415;28;20577;-67